Time;durP1;ratioP1;P1;durP2;ratioP2;P2;SDS_P1;SDS_P2;PMS_P1;PMS_P2;Temp;Humidity;BMP_temperature;BMP_pressure;BME280_temperature;BME280_humidity;BME280_pressure;Samples;Min_cycle;Max_cycle;Signal;HPM_P1;HPM_P2
2022/01/01 00:01:33;;;;;;;38.33;28.15;;;13.10;99.90;;;;;;5020534;28;20245;-83
2022/01/01 00:04:00;;;;;;;37.85;26.30;;;13.10;99.90;;;;;;5020522;28;20236;-83
2022/01/01 00:06:27;;;;;;;38.13;25.13;;;13.10;99.90;;;;;;5020822;28;20220;-83
2022/01/01 00:08:57;;;;;;;47.47;28.20;;;13.20;99.90;;;;;;5021896;28;20200;-83
2022/01/01 00:11:25;;;;;;;34.08;24.60;;;13.10;99.90;;;;;;5022117;28;20247;-83
2022/01/01 00:13:52;;;;;;;42.28;25.10;;;13.10;99.90;;;;;;5020845;28;20702;-83
2022/01/01 00:16:19;;;;;;;35.80;22.70;;;13.20;99.90;;;;;;5020727;28;20260;-83
2022/01/01 00:18:45;;;;;;;34.15;22.17;;;13.10;99.90;;;;;;5023007;28;20259;-83
2022/01/01 00:21:12;;;;;;;33.25;21.77;;;13.20;99.90;;;;;;5020454;28;20205;-83
2022/01/01 00:23:39;;;;;;;34.00;20.80;;;13.10;99.90;;;;;;5020210;28;20298;-84
2022/01/01 00:26:06;;;;;;;33.72;19.63;;;13.20;99.90;;;;;;5021314;28;20312;-83
2022/01/01 00:28:34;;;;;;;35.13;20.80;;;13.20;99.90;;;;;;5021916;28;20678;-83
2022/01/01 00:31:01;;;;;;;34.60;18.50;;;13.10;99.90;;;;;;5021185;28;20240;-82
2022/01/01 00:33:29;;;;;;;33.17;20.20;;;13.10;99.90;;;;;;5021535;28;20252;-82
2022/01/01 00:35:56;;;;;;;40.10;21.13;;;13.10;99.90;;;;;;5020042;28;20647;-82
2022/01/01 00:38:23;;;;;;;30.02;19.08;;;13.20;99.90;;;;;;5019569;28;20220;-84
2022/01/01 00:40:50;;;;;;;30.05;19.45;;;13.20;99.90;;;;;;5021294;28;20259;-83
2022/01/01 00:43:17;;;;;;;28.48;19.08;;;13.20;99.90;;;;;;5019763;28;20327;-81
2022/01/01 00:45:45;;;;;;;36.22;20.52;;;13.20;99.90;;;;;;5020459;28;20322;-82
2022/01/01 00:48:12;;;;;;;35.75;24.13;;;13.10;99.90;;;;;;5019349;28;20265;-83
2022/01/01 00:50:39;;;;;;;43.60;26.63;;;13.10;99.90;;;;;;5021894;28;20294;-82
2022/01/01 00:53:06;;;;;;;54.25;32.30;;;13.10;99.90;;;;;;5025327;28;20212;-83
2022/01/01 00:55:33;;;;;;;45.47;29.60;;;13.10;99.90;;;;;;5026779;28;20223;-83
2022/01/01 00:58:01;;;;;;;41.75;30.90;;;13.00;99.90;;;;;;5025597;28;20204;-83
2022/01/01 01:00:28;;;;;;;59.33;37.78;;;13.00;99.90;;;;;;5023249;28;20522;-83
2022/01/01 01:02:56;;;;;;;59.35;36.83;;;13.10;99.90;;;;;;5036343;28;20246;-83
2022/01/01 01:05:23;;;;;;;47.35;34.40;;;13.00;99.90;;;;;;5025152;28;20240;-82
2022/01/01 01:07:50;;;;;;;47.08;31.38;;;13.00;99.90;;;;;;5016670;28;20291;-82
2022/01/01 01:10:17;;;;;;;51.80;33.70;;;13.00;99.90;;;;;;5022751;28;20283;-82
2022/01/01 01:12:47;;;;;;;55.20;28.33;;;13.00;99.90;;;;;;5022223;28;20199;-82
2022/01/01 01:15:17;;;;;;;41.83;26.17;;;13.00;99.90;;;;;;5022533;28;20300;-82
2022/01/01 01:17:46;;;;;;;26.48;19.38;;;13.00;99.90;;;;;;5028687;28;20196;-83
2022/01/01 01:20:14;;;;;;;32.60;21.77;;;13.00;99.90;;;;;;5025257;28;20259;-81
2022/01/01 01:22:42;;;;;;;31.50;19.90;;;13.00;99.90;;;;;;5024513;28;20227;-83
2022/01/01 01:25:10;;;;;;;48.03;29.92;;;13.00;99.90;;;;;;5026567;28;20252;-84
2022/01/01 01:27:37;;;;;;;37.08;22.80;;;13.00;99.90;;;;;;5029612;28;20204;-82
2022/01/01 01:30:06;;;;;;;36.47;21.15;;;13.00;99.90;;;;;;5030351;28;20200;-82
2022/01/01 01:32:33;;;;;;;30.33;17.85;;;13.00;99.90;;;;;;5023687;28;20224;-82
2022/01/01 01:35:00;;;;;;;32.70;18.80;;;13.10;99.90;;;;;;5024910;28;20742;-82
2022/01/01 01:37:29;;;;;;;29.85;19.67;;;13.00;99.90;;;;;;5025117;28;20301;-82
2022/01/01 01:39:56;;;;;;;27.23;18.65;;;13.00;99.90;;;;;;5032396;28;20208;-82
2022/01/01 01:42:24;;;;;;;27.95;19.83;;;13.00;99.90;;;;;;5027431;28;20225;-82
2022/01/01 01:44:53;;;;;;;34.13;18.25;;;13.00;99.90;;;;;;5036066;28;20235;-82
2022/01/01 01:47:28;;;;;;;35.40;20.35;;;13.00;99.90;;;;;;5029603;28;20212;-82
2022/01/01 01:49:56;;;;;;;26.70;18.92;;;12.90;99.90;;;;;;5028382;28;20204;-83
2022/01/01 01:52:23;;;;;;;31.60;19.52;;;13.00;99.90;;;;;;5028216;28;20289;-82
2022/01/01 01:54:52;;;;;;;40.97;19.10;;;13.10;99.90;;;;;;5033788;28;20237;-83
2022/01/01 01:57:20;;;;;;;67.53;32.50;;;13.00;99.90;;;;;;5034827;28;20225;-83
2022/01/01 01:59:47;;;;;;;34.97;21.33;;;13.00;99.90;;;;;;5035188;28;20204;-83
2022/01/01 02:02:14;;;;;;;40.50;20.20;;;13.00;99.90;;;;;;5044176;28;20304;-82
2022/01/01 02:04:41;;;;;;;31.50;18.90;;;13.00;99.90;;;;;;5029437;28;20252;-82
2022/01/01 02:07:08;;;;;;;34.03;18.42;;;13.00;99.90;;;;;;5038265;28;20208;-82
2022/01/01 02:09:37;;;;;;;32.75;16.73;;;13.00;99.90;;;;;;5038002;28;20200;-82
2022/01/01 02:12:06;;;;;;;29.80;17.58;;;13.00;99.90;;;;;;5041983;28;20203;-82
2022/01/01 02:14:53;;;;;;;202.15;169.55;;;13.00;99.90;;;;;;5046463;28;20248;-82
2022/01/01 02:17:20;;;;;;;27.10;19.20;;;13.00;99.90;;;;;;5025950;28;20203;-82
2022/01/01 02:19:54;;;;;;;23.38;17.33;;;12.90;99.90;;;;;;5038897;28;20248;-82
2022/01/01 02:22:24;;;;;;;44.22;20.98;;;13.00;99.90;;;;;;5031932;28;20216;-82
2022/01/01 02:24:51;;;;;;;33.42;23.58;;;13.00;99.90;;;;;;5044226;28;20336;-81
2022/01/01 02:27:18;;;;;;;1634.07;999.90;;;13.10;99.90;;;;;;5042453;28;20193;-82
2022/01/01 02:29:45;;;;;;;28.92;22.58;;;13.00;99.90;;;;;;5026268;28;20217;-82
2022/01/01 02:32:16;;;;;;;1131.97;669.40;;;13.00;99.90;;;;;;5023582;28;20267;-82
2022/01/01 02:34:43;;;;;;;39.03;27.73;;;13.20;99.90;;;;;;5026781;28;20220;-82
2022/01/01 02:37:10;;;;;;;243.90;176.75;;;13.00;99.90;;;;;;5034825;28;20397;-82
2022/01/01 02:39:39;;;;;;;76.22;47.00;;;13.00;99.90;;;;;;5019541;28;20896;-82
2022/01/01 02:42:10;;;;;;;371.75;266.70;;;13.10;99.90;;;;;;5019376;28;20227;-82
2022/01/01 02:44:37;;;;;;;68.53;47.42;;;13.00;99.90;;;;;;5020214;28;20638;-82
2022/01/01 02:47:04;;;;;;;50.65;31.85;;;13.00;99.90;;;;;;5021649;28;20626;-83
2022/01/01 02:49:31;;;;;;;75.97;54.00;;;13.10;99.90;;;;;;5026287;28;20314;-82
2022/01/01 02:51:57;;;;;;;113.07;97.35;;;13.00;99.90;;;;;;5021588;28;20223;-83
2022/01/01 02:54:24;;;;;;;168.20;131.38;;;13.10;99.90;;;;;;5038632;28;20271;-82
2022/01/01 02:56:52;;;;;;;643.33;580.50;;;13.10;99.90;;;;;;5023063;28;20213;-80
2022/01/01 02:59:19;;;;;;;42.17;32.75;;;13.00;99.90;;;;;;5020808;28;20208;-82
2022/01/01 03:01:46;;;;;;;27.63;20.20;;;13.00;99.90;;;;;;5020337;28;20211;-82
2022/01/01 03:04:13;;;;;;;31.90;19.55;;;13.00;99.90;;;;;;5030344;28;20235;-82
2022/01/01 03:06:40;;;;;;;34.03;21.85;;;13.00;99.90;;;;;;5022900;28;20203;-82
2022/01/01 03:09:07;;;;;;;42.28;23.92;;;13.00;99.90;;;;;;5022055;28;20247;-82
2022/01/01 03:11:34;;;;;;;34.78;19.38;;;13.00;99.90;;;;;;5023672;28;20453;-83
2022/01/01 03:14:02;;;;;;;26.42;18.65;;;13.00;99.90;;;;;;5027064;28;20325;-83
2022/01/01 03:16:30;;;;;;;35.65;21.52;;;13.00;99.90;;;;;;5022684;28;20267;-82
2022/01/01 03:18:57;;;;;;;28.52;19.85;;;12.90;99.90;;;;;;5021916;28;20204;-83
2022/01/01 03:21:24;;;;;;;34.85;23.27;;;12.90;99.90;;;;;;5029892;28;20228;-82
2022/01/01 03:23:50;;;;;;;40.55;22.55;;;12.90;99.90;;;;;;5022765;28;20528;-83
2022/01/01 03:26:17;;;;;;;40.90;23.83;;;13.00;99.90;;;;;;5030964;28;20278;-82
2022/01/01 03:28:44;;;;;;;39.50;22.45;;;13.00;99.90;;;;;;5021341;28;20207;-83
2022/01/01 03:31:12;;;;;;;42.95;24.55;;;13.00;99.90;;;;;;5021597;28;20624;-83
2022/01/01 03:33:39;;;;;;;39.00;22.15;;;13.00;99.90;;;;;;5035864;28;20236;-83
2022/01/01 03:36:16;;;;;;;31.30;19.65;;;13.00;99.90;;;;;;5103971;27;20528;-67
2022/01/01 03:38:43;;;;;;;33.05;16.77;;;13.10;99.90;;;;;;5092567;28;20427;-67
2022/01/01 03:41:10;;;;;;;33.38;18.50;;;13.00;99.90;;;;;;5098297;28;20295;-68
2022/01/01 03:43:37;;;;;;;33.03;17.80;;;13.00;99.90;;;;;;5083628;28;20460;-67
2022/01/01 03:46:04;;;;;;;29.15;18.58;;;13.00;99.90;;;;;;5083648;28;20350;-67
2022/01/01 03:48:31;;;;;;;39.05;19.27;;;13.00;99.90;;;;;;5083911;28;20249;-68
2022/01/01 03:50:58;;;;;;;34.78;19.08;;;13.00;99.90;;;;;;5083600;28;20234;-67
2022/01/01 03:53:27;;;;;;;31.05;18.95;;;13.00;99.90;;;;;;5084779;28;20250;-67
2022/01/01 03:55:54;;;;;;;36.13;20.45;;;13.00;99.90;;;;;;5090125;28;20209;-68
2022/01/01 03:58:21;;;;;;;34.20;23.30;;;12.90;99.90;;;;;;5084166;28;20405;-67
2022/01/01 04:00:48;;;;;;;47.97;23.63;;;12.90;99.90;;;;;;5090339;28;20301;-67
2022/01/01 04:03:16;;;;;;;52.42;23.25;;;12.90;99.90;;;;;;5083321;28;20233;-68
2022/01/01 04:05:44;;;;;;;54.00;24.80;;;12.90;99.90;;;;;;5083364;28;20205;-67
2022/01/01 04:08:13;;;;;;;42.67;26.15;;;12.90;99.90;;;;;;5083277;28;20183;-68
2022/01/01 04:10:41;;;;;;;46.17;28.27;;;13.00;99.90;;;;;;5082561;28;20270;-67
2022/01/01 04:13:10;;;;;;;47.67;27.23;;;12.90;99.90;;;;;;5083275;28;20250;-67
2022/01/01 04:15:41;;;;;;;43.15;27.33;;;12.90;99.90;;;;;;5083109;28;20246;-67
2022/01/01 04:18:11;;;;;;;44.70;28.17;;;12.90;99.90;;;;;;5083373;28;20202;-68
2022/01/01 04:20:38;;;;;;;50.08;24.60;;;12.90;99.90;;;;;;5082173;28;20297;-68
2022/01/01 04:23:09;;;;;;;43.30;28.02;;;12.90;99.90;;;;;;5083115;28;20217;-68
2022/01/01 04:25:36;;;;;;;52.47;28.13;;;13.00;99.90;;;;;;5083007;28;20195;-68
2022/01/01 04:28:05;;;;;;;44.03;27.58;;;12.90;99.90;;;;;;5083398;28;20306;-68
2022/01/01 04:30:32;;;;;;;41.65;28.92;;;12.90;99.90;;;;;;5081999;28;20433;-67
2022/01/01 04:32:59;;;;;;;47.90;26.60;;;13.00;99.90;;;;;;5083170;28;20277;-67
2022/01/01 04:35:27;;;;;;;41.45;26.42;;;13.00;99.90;;;;;;5082525;28;20225;-68
2022/01/01 04:37:54;;;;;;;61.65;28.05;;;12.90;99.90;;;;;;5082620;28;20206;-68
2022/01/01 04:40:21;;;;;;;48.40;26.15;;;13.00;99.90;;;;;;5082087;28;20214;-67
2022/01/01 04:42:49;;;;;;;53.50;26.73;;;12.90;99.90;;;;;;5082768;28;20206;-67
2022/01/01 04:45:17;;;;;;;43.67;28.00;;;13.00;99.90;;;;;;5082843;28;20187;-67
2022/01/01 04:47:45;;;;;;;50.08;28.00;;;13.00;99.90;;;;;;5068991;28;20183;-67
2022/01/01 04:50:12;;;;;;;51.90;28.73;;;12.90;99.90;;;;;;5068663;28;20191;-68
2022/01/01 04:52:39;;;;;;;48.72;27.83;;;13.00;99.90;;;;;;5068955;28;20219;-68
2022/01/01 04:55:06;;;;;;;50.67;28.45;;;12.90;99.90;;;;;;5069123;28;20218;-68
2022/01/01 04:57:33;;;;;;;61.05;31.20;;;12.90;99.90;;;;;;5068802;28;20243;-67
2022/01/01 05:00:00;;;;;;;47.33;28.90;;;12.90;99.90;;;;;;5068260;28;20202;-68
2022/01/01 05:02:30;;;;;;;57.13;30.50;;;12.90;99.90;;;;;;5068657;28;20203;-68
2022/01/01 05:04:56;;;;;;;54.85;30.77;;;12.90;99.90;;;;;;5069218;28;20191;-68
2022/01/01 05:07:23;;;;;;;54.40;29.75;;;12.90;99.90;;;;;;5069111;28;20406;-69
2022/01/01 05:09:50;;;;;;;46.22;31.17;;;12.90;99.90;;;;;;5068731;28;20180;-67
2022/01/01 05:12:17;;;;;;;57.20;33.15;;;12.90;99.90;;;;;;5068995;28;20441;-68
2022/01/01 05:14:44;;;;;;;53.35;31.23;;;12.90;99.90;;;;;;5077523;28;20199;-67
2022/01/01 05:17:17;;;;;;;56.97;32.22;;;12.90;99.90;;;;;;5069654;28;20232;-67
2022/01/01 05:19:46;;;;;;;55.40;31.48;;;12.90;99.90;;;;;;5057142;28;20183;-68
2022/01/01 05:22:12;;;;;;;52.75;32.50;;;12.90;99.90;;;;;;5069007;28;20246;-68
2022/01/01 05:24:39;;;;;;;61.03;34.22;;;12.90;99.90;;;;;;5069014;28;20251;-68
2022/01/01 05:27:06;;;;;;;68.20;34.95;;;12.90;99.90;;;;;;5069107;28;20218;-67
2022/01/01 05:29:33;;;;;;;51.75;30.48;;;12.90;99.90;;;;;;5068543;28;20184;-68
2022/01/01 05:32:00;;;;;;;54.47;33.10;;;12.90;99.90;;;;;;5068755;28;20434;-68
2022/01/01 05:34:27;;;;;;;54.92;33.85;;;12.90;99.90;;;;;;5068602;28;20207;-67
2022/01/01 05:36:55;;;;;;;56.85;35.90;;;13.00;99.90;;;;;;5069002;28;20194;-68
2022/01/01 05:39:22;;;;;;;65.57;33.75;;;13.00;99.90;;;;;;5068151;28;20223;-68
2022/01/01 05:41:52;;;;;;;59.17;38.60;;;13.00;99.90;;;;;;5068081;28;20253;-68
2022/01/01 05:44:19;;;;;;;63.90;37.45;;;12.90;99.90;;;;;;5068494;28;20191;-68
2022/01/01 05:46:46;;;;;;;70.20;37.22;;;13.00;99.90;;;;;;5068845;28;20188;-70
2022/01/01 05:49:13;;;;;;;67.03;37.50;;;12.90;99.90;;;;;;5068478;28;20205;-69
2022/01/01 05:51:40;;;;;;;67.35;36.80;;;12.90;99.90;;;;;;5067450;28;20215;-69
2022/01/01 05:54:09;;;;;;;64.90;37.05;;;12.90;99.90;;;;;;5075577;28;20191;-69
2022/01/01 05:56:36;;;;;;;67.30;36.17;;;13.00;99.90;;;;;;5069195;28;20218;-68
2022/01/01 05:59:04;;;;;;;67.97;39.65;;;12.90;99.90;;;;;;5067440;28;20242;-68
2022/01/01 06:01:31;;;;;;;72.22;37.13;;;12.90;99.90;;;;;;5067386;28;20203;-69
2022/01/01 06:03:57;;;;;;;71.10;39.03;;;12.80;99.90;;;;;;5068628;28;20305;-69
2022/01/01 06:06:25;;;;;;;77.47;37.92;;;12.80;99.90;;;;;;5068018;28;20220;-69
2022/01/01 06:08:51;;;;;;;66.07;38.28;;;12.90;99.90;;;;;;5067979;28;20195;-69
2022/01/01 06:11:20;;;;;;;69.50;37.25;;;12.80;99.90;;;;;;5067500;28;20206;-68
2022/01/01 06:13:47;;;;;;;71.60;35.90;;;12.80;99.90;;;;;;5068400;28;20258;-68
2022/01/01 06:16:13;;;;;;;53.83;37.53;;;12.70;99.90;;;;;;5067802;28;20309;-68
2022/01/01 06:18:41;;;;;;;56.67;35.67;;;12.80;99.90;;;;;;5067755;28;20217;-69
2022/01/01 06:21:08;;;;;;;58.63;34.80;;;12.70;99.90;;;;;;5067366;28;20249;-68
2022/01/01 06:23:37;;;;;;;74.63;36.05;;;12.80;99.90;;;;;;5067855;28;20309;-69
2022/01/01 06:26:04;;;;;;;60.72;32.75;;;12.80;99.90;;;;;;5068042;28;20198;-68
2022/01/01 06:28:32;;;;;;;57.70;33.70;;;12.80;99.90;;;;;;5076042;28;20202;-68
2022/01/01 06:30:59;;;;;;;66.45;35.53;;;12.80;99.90;;;;;;5067074;28;20426;-71
2022/01/01 06:33:26;;;;;;;68.57;36.10;;;12.80;99.90;;;;;;5067776;28;20458;-68
2022/01/01 06:35:55;;;;;;;74.47;38.90;;;12.80;99.90;;;;;;5067564;28;20225;-69
2022/01/01 06:38:23;;;;;;;53.47;31.98;;;12.80;99.90;;;;;;5067546;28;20184;-68
2022/01/01 06:40:50;;;;;;;63.28;34.20;;;12.80;99.90;;;;;;5067032;28;20265;-69
2022/01/01 06:43:22;;;;;;;67.75;35.38;;;12.80;99.90;;;;;;5067670;28;20249;-70
2022/01/01 06:45:50;;;;;;;74.63;36.80;;;12.70;99.90;;;;;;5067580;28;20326;-69
2022/01/01 06:48:17;;;;;;;66.95;38.15;;;12.90;99.90;;;;;;5067449;28;20441;-69
2022/01/01 06:50:44;;;;;;;64.88;37.47;;;12.80;99.90;;;;;;5067423;28;20218;-69
2022/01/01 06:53:11;;;;;;;67.78;37.70;;;12.80;99.90;;;;;;5067456;28;20237;-69
2022/01/01 06:55:37;;;;;;;69.45;37.05;;;12.80;99.90;;;;;;5070034;28;20615;-69
2022/01/01 06:58:04;;;;;;;79.45;39.78;;;12.80;99.90;;;;;;5070133;28;20186;-68
2022/01/01 07:00:31;;;;;;;79.72;43.30;;;12.80;99.90;;;;;;5067312;28;20264;-69
2022/01/01 07:03:00;;;;;;;63.75;40.50;;;12.70;99.90;;;;;;5067605;28;20194;-69
2022/01/01 07:05:27;;;;;;;74.28;39.30;;;12.70;99.90;;;;;;5067504;28;20184;-69
2022/01/01 07:07:55;;;;;;;78.63;39.90;;;12.70;99.90;;;;;;5066997;28;20219;-68
2022/01/01 07:10:22;;;;;;;66.55;37.10;;;12.70;99.90;;;;;;5066339;28;20226;-68
2022/01/01 07:12:49;;;;;;;73.32;40.58;;;12.70;99.90;;;;;;5071852;28;20213;-68
2022/01/01 07:15:17;;;;;;;82.43;44.67;;;12.70;99.90;;;;;;5070526;28;20246;-68
2022/01/01 07:17:44;;;;;;;89.60;48.20;;;12.70;99.90;;;;;;5064683;28;20202;-69
2022/01/01 07:20:13;;;;;;;93.68;44.60;;;12.80;99.90;;;;;;5066612;28;20364;-69
2022/01/01 07:22:41;;;;;;;83.10;43.17;;;12.80;99.90;;;;;;5066821;28;20218;-68
2022/01/01 07:25:09;;;;;;;91.65;44.47;;;12.70;99.90;;;;;;5072968;28;20257;-68
2022/01/01 07:27:37;;;;;;;79.38;42.55;;;12.80;99.90;;;;;;5069607;28;20353;-69
2022/01/01 07:30:05;;;;;;;80.82;45.90;;;12.70;99.90;;;;;;5070660;28;20372;-68
2022/01/01 07:32:32;;;;;;;81.75;41.92;;;12.70;99.90;;;;;;5066903;28;20218;-68
2022/01/01 07:34:59;;;;;;;91.22;48.20;;;12.70;99.90;;;;;;5066686;28;20198;-69
2022/01/01 07:37:27;;;;;;;76.90;45.13;;;12.70;99.90;;;;;;5066748;28;20222;-69
2022/01/01 07:39:54;;;;;;;102.40;47.90;;;12.70;99.90;;;;;;5065807;28;20214;-69
2022/01/01 07:42:21;;;;;;;94.90;48.25;;;12.70;99.90;;;;;;5066964;28;20234;-68
2022/01/01 07:44:48;;;;;;;84.95;44.83;;;12.70;99.90;;;;;;5067010;28;20353;-69
2022/01/01 07:47:15;;;;;;;76.25;46.10;;;12.70;99.90;;;;;;5066787;28;20183;-68
2022/01/01 07:49:42;;;;;;;78.75;45.10;;;12.70;99.90;;;;;;5064010;28;20229;-68
2022/01/01 07:52:09;;;;;;;80.07;43.90;;;12.70;99.90;;;;;;5066769;28;20269;-68
2022/01/01 07:54:37;;;;;;;81.97;44.90;;;12.80;99.90;;;;;;5066358;28;20261;-69
2022/01/01 07:57:04;;;;;;;81.57;42.50;;;12.70;99.90;;;;;;5066804;28;20241;-69
2022/01/01 07:59:31;;;;;;;81.70;45.90;;;12.70;99.90;;;;;;5065707;28;20431;-69
2022/01/01 08:01:58;;;;;;;86.93;45.22;;;12.70;99.90;;;;;;5066920;28;20238;-69
2022/01/01 08:04:25;;;;;;;93.95;43.67;;;12.70;99.90;;;;;;5066483;28;20241;-68
2022/01/01 08:06:52;;;;;;;91.85;44.33;;;12.70;99.90;;;;;;5066473;28;20211;-68
2022/01/01 08:09:19;;;;;;;74.97;42.25;;;12.80;99.90;;;;;;5066218;28;20246;-68
2022/01/01 08:11:47;;;;;;;72.47;41.60;;;12.80;99.90;;;;;;5066125;28;20203;-69
2022/01/01 08:14:14;;;;;;;78.95;42.78;;;12.80;99.90;;;;;;5066734;28;20218;-68
2022/01/01 08:16:56;;;;;;;78.57;42.13;;;12.80;99.90;;;;;;5066618;28;20383;-68
2022/01/01 08:19:23;;;;;;;100.20;45.55;;;12.80;99.90;;;;;;5065978;28;20192;-69
2022/01/01 08:21:50;;;;;;;79.57;43.80;;;12.70;99.90;;;;;;5067528;28;20200;-68
2022/01/01 08:24:17;;;;;;;64.68;41.38;;;12.70;99.90;;;;;;5070140;28;20219;-68
2022/01/01 08:26:44;;;;;;;73.13;38.30;;;12.70;99.90;;;;;;5070207;28;20192;-68
2022/01/01 08:29:12;;;;;;;84.13;44.15;;;12.70;99.90;;;;;;5070227;28;20187;-68
2022/01/01 08:31:39;;;;;;;78.18;42.45;;;12.70;99.90;;;;;;5069437;28;20204;-68
2022/01/01 08:34:08;;;;;;;65.15;39.25;;;12.70;99.90;;;;;;5070095;28;20179;-68
2022/01/01 08:36:35;;;;;;;62.80;39.78;;;12.80;99.90;;;;;;5070138;28;20265;-68
2022/01/01 08:39:02;;;;;;;66.22;38.75;;;12.80;99.90;;;;;;5069806;28;20195;-67
2022/01/01 08:41:29;;;;;;;75.85;38.75;;;12.80;99.90;;;;;;5069134;28;20658;-68
2022/01/01 08:43:56;;;;;;;77.15;39.80;;;12.70;99.90;;;;;;5070016;28;20207;-67
2022/01/01 08:46:24;;;;;;;74.55;36.22;;;12.80;99.90;;;;;;5069611;28;20183;-68
2022/01/01 08:48:51;;;;;;;66.70;40.72;;;12.80;99.90;;;;;;5062708;28;20215;-68
2022/01/01 08:51:19;;;;;;;51.83;33.95;;;12.80;99.90;;;;;;5068627;28;20461;-67
2022/01/01 08:53:47;;;;;;;72.65;37.40;;;12.80;99.90;;;;;;5069398;28;20417;-68
2022/01/01 08:56:14;;;;;;;60.40;34.20;;;12.80;99.90;;;;;;5069168;28;20261;-68
2022/01/01 08:58:42;;;;;;;72.97;38.92;;;12.80;99.90;;;;;;5069521;28;20214;-68
2022/01/01 09:01:10;;;;;;;55.55;34.53;;;12.80;99.90;;;;;;5068571;28;20249;-68
2022/01/01 09:03:38;;;;;;;56.17;33.63;;;12.80;99.90;;;;;;5069745;28;20191;-69
2022/01/01 09:06:06;;;;;;;64.43;35.90;;;12.90;99.90;;;;;;5069328;28;20198;-68
2022/01/01 09:08:35;;;;;;;56.78;32.85;;;12.90;99.90;;;;;;5069593;28;20194;-69
2022/01/01 09:11:03;;;;;;;57.63;34.67;;;12.90;99.90;;;;;;5068723;28;20489;-68
2022/01/01 09:13:30;;;;;;;55.30;31.73;;;12.80;99.90;;;;;;5068746;28;20297;-67
2022/01/01 09:15:58;;;;;;;50.83;33.22;;;12.90;99.90;;;;;;5068653;28;20199;-67
2022/01/01 09:18:25;;;;;;;57.20;33.15;;;12.90;99.90;;;;;;5068985;28;20191;-68
2022/01/01 09:20:53;;;;;;;52.95;32.45;;;13.00;99.90;;;;;;5068518;28;20250;-68
2022/01/01 09:23:20;;;;;;;59.65;32.55;;;13.00;99.90;;;;;;5069350;28;20195;-68
2022/01/01 09:25:47;;;;;;;51.50;31.92;;;12.90;99.90;;;;;;5068977;28;20219;-68
2022/01/01 09:28:14;;;;;;;51.90;31.52;;;13.00;99.90;;;;;;5068794;28;20183;-68
2022/01/01 09:30:41;;;;;;;44.05;30.10;;;13.00;99.90;;;;;;5067932;28;20203;-68
2022/01/01 09:33:10;;;;;;;51.97;30.33;;;13.00;99.90;;;;;;5068713;28;20239;-66
2022/01/01 09:35:37;;;;;;;60.78;32.53;;;13.00;99.90;;;;;;5068113;28;20362;-68
2022/01/01 09:38:07;;;;;;;53.70;33.42;;;13.00;99.90;;;;;;5068670;28;20261;-68
2022/01/01 09:40:34;;;;;;;52.35;29.27;;;13.10;99.90;;;;;;5066867;28;20294;-67
2022/01/01 09:43:01;;;;;;;49.25;32.88;;;13.10;99.90;;;;;;5068550;28;20215;-68
2022/01/01 09:45:30;;;;;;;47.80;31.02;;;13.10;99.90;;;;;;5068959;28;20210;-68
2022/01/01 09:48:00;;;;;;;46.25;29.48;;;13.20;99.90;;;;;;5068524;28;20310;-68
2022/01/01 09:50:27;;;;;;;68.00;30.17;;;13.20;99.90;;;;;;5067861;28;20208;-67
2022/01/01 09:52:54;;;;;;;46.15;27.33;;;13.30;99.90;;;;;;5068621;28;20250;-67
2022/01/01 09:55:23;;;;;;;45.90;26.67;;;13.30;99.90;;;;;;5068470;28;20183;-69
2022/01/01 09:57:51;;;;;;;44.42;28.33;;;13.30;99.90;;;;;;5068624;28;20196;-68
2022/01/01 10:00:17;;;;;;;43.47;25.73;;;13.40;99.90;;;;;;5068341;28;20223;-68
2022/01/01 10:02:44;;;;;;;46.35;26.95;;;13.40;99.90;;;;;;5074520;28;20234;-69
2022/01/01 10:05:12;;;;;;;50.63;28.17;;;13.30;99.90;;;;;;5064634;28;20194;-68
2022/01/01 10:07:39;;;;;;;56.42;28.35;;;13.30;99.90;;;;;;5068091;28;20398;-68
2022/01/01 10:10:20;;;;;;;35.10;24.98;;;13.30;99.90;;;;;;5067454;28;20189;-69
2022/01/01 10:12:48;;;;;;;49.88;29.05;;;13.20;99.90;;;;;;5062443;28;20214;-67
2022/01/01 10:15:16;;;;;;;46.45;26.65;;;13.20;99.90;;;;;;5070855;28;20191;-68
2022/01/01 10:17:44;;;;;;;50.63;27.80;;;13.20;99.90;;;;;;5068194;28;20407;-69
2022/01/01 10:20:12;;;;;;;51.08;29.55;;;13.30;99.90;;;;;;5067843;28;20180;-68
2022/01/01 10:22:40;;;;;;;44.90;25.75;;;13.30;99.90;;;;;;5068222;28;20195;-69
2022/01/01 10:27:57;;;;;;;46.15;26.35;;;13.30;99.90;;;;;;5067969;28;20393;-68
2022/01/01 10:30:35;;;;;;;39.83;24.95;;;13.40;99.90;;;;;;5067309;28;20449;-69
2022/01/01 10:33:10;;;;;;;39.20;25.23;;;13.40;99.90;;;;;;5068036;28;20229;-68
2022/01/01 10:35:42;;;;;;;43.42;23.95;;;13.40;99.90;;;;;;5067920;28;20262;-68
2022/01/01 10:38:15;;;;;;;44.00;25.33;;;13.50;99.90;;;;;;5068091;28;20207;-68
2022/01/01 10:40:43;;;;;;;45.50;24.63;;;13.50;99.90;;;;;;5066921;28;20445;-68
2022/01/01 10:43:12;;;;;;;45.55;24.27;;;13.60;99.90;;;;;;5067838;28;20307;-68
2022/01/01 10:45:40;;;;;;;34.97;23.20;;;13.60;99.90;;;;;;5067213;28;20226;-68
2022/01/01 10:48:22;;;;;;;43.83;24.15;;;13.60;99.90;;;;;;5067600;28;20183;-68
2022/01/01 10:50:50;;;;;;;36.53;24.50;;;13.70;99.90;;;;;;5067380;28;20253;-67
2022/01/01 10:53:20;;;;;;;33.65;22.73;;;13.70;99.90;;;;;;5068573;28;20180;-68
2022/01/01 10:55:51;;;;;;;41.17;24.48;;;13.80;99.90;;;;;;5066945;28;20233;-68
2022/01/01 10:58:22;;;;;;;42.80;23.55;;;13.80;99.90;;;;;;5067248;28;20279;-68
2022/01/01 11:00:50;;;;;;;40.13;24.77;;;13.80;99.90;;;;;;5067449;28;20231;-68
2022/01/01 11:03:19;;;;;;;33.75;22.20;;;13.90;99.90;;;;;;5067241;28;20195;-68
2022/01/01 11:05:48;;;;;;;31.38;22.92;;;13.80;99.90;;;;;;5067472;28;20180;-68
2022/01/01 11:08:15;;;;;;;37.78;23.08;;;13.90;99.90;;;;;;5066522;28;20192;-68
2022/01/01 11:10:44;;;;;;;44.88;25.10;;;13.90;99.90;;;;;;5074657;28;20316;-68
2022/01/01 11:13:12;;;;;;;43.42;23.88;;;13.90;99.90;;;;;;5063296;28;20238;-67
2022/01/01 11:15:40;;;;;;;45.92;26.40;;;13.80;99.90;;;;;;5067001;28;20188;-68
2022/01/01 11:18:09;;;;;;;38.63;24.52;;;13.90;99.90;;;;;;5067209;28;20235;-68
2022/01/01 11:20:38;;;;;;;43.33;26.02;;;14.00;99.90;;;;;;5065652;28;20434;-69
2022/01/01 11:23:08;;;;;;;36.42;23.70;;;14.00;99.90;;;;;;5066680;28;20197;-68
2022/01/01 11:25:36;;;;;;;43.78;25.98;;;14.00;99.90;;;;;;5067064;28;20242;-68
2022/01/01 11:28:04;;;;;;;46.38;26.45;;;14.00;99.90;;;;;;5066637;28;20410;-68
2022/01/01 11:30:32;;;;;;;47.58;25.23;;;14.10;99.90;;;;;;5066091;28;20257;-68
2022/01/01 11:33:07;;;;;;;40.58;28.48;;;14.10;99.90;;;;;;5067162;28;20189;-68
2022/01/01 11:35:38;;;;;;;48.35;29.80;;;14.30;99.90;;;;;;5066426;28;20223;-68
2022/01/01 11:38:08;;;;;;;46.97;25.92;;;14.40;99.90;;;;;;5066689;28;20278;-68
2022/01/01 11:40:55;;;;;;;38.05;24.80;;;14.50;99.90;;;;;;5066121;28;20206;-68
2022/01/01 11:43:38;;;;;;;35.38;22.98;;;14.70;99.90;;;;;;5069944;28;20192;-68
2022/01/01 11:46:10;;;;;;;42.88;23.63;;;14.60;99.90;;;;;;5071855;28;20222;-68
2022/01/01 11:48:45;;;;;;;42.92;26.80;;;14.50;99.90;;;;;;5066656;28;20207;-68
2022/01/01 11:51:29;;;;;;;38.88;24.88;;;14.50;99.90;;;;;;5065501;28;20306;-68
2022/01/01 11:54:10;;;;;;;36.70;24.10;;;14.50;99.90;;;;;;5064321;28;20215;-68
2022/01/01 11:56:58;;;;;;;32.25;22.17;;;14.60;99.90;;;;;;5068102;28;20280;-67
2022/01/01 11:59:26;;;;;;;40.20;23.67;;;14.60;99.90;;;;;;5070191;28;20194;-68
2022/01/01 12:01:54;;;;;;;31.90;22.63;;;14.70;99.90;;;;;;5070341;28;20207;-68
2022/01/01 12:04:32;;;;;;;34.17;22.40;;;14.60;99.90;;;;;;5070278;28;20212;-68
2022/01/01 12:07:00;;;;;;;32.38;23.27;;;14.70;99.90;;;;;;5070889;28;20184;-67
2022/01/01 12:09:28;;;;;;;30.85;20.23;;;14.60;99.90;;;;;;5069740;28;20239;-69
2022/01/01 12:11:57;;;;;;;31.25;20.30;;;14.60;99.90;;;;;;5076989;28;20262;-68
2022/01/01 12:14:25;;;;;;;37.85;22.52;;;14.50;99.90;;;;;;5070436;28;20184;-67
2022/01/01 12:16:54;;;;;;;29.92;21.85;;;14.60;99.90;;;;;;5070313;28;20235;-67
2022/01/01 12:19:22;;;;;;;28.90;20.02;;;14.60;99.90;;;;;;5069863;28;20375;-69
2022/01/01 12:22:03;;;;;;;33.17;20.10;;;14.70;99.90;;;;;;5072758;28;20214;-68
2022/01/01 12:24:34;;;;;;;29.92;19.48;;;14.80;99.90;;;;;;5069959;28;20255;-68
2022/01/01 12:27:10;;;;;;;25.85;18.60;;;14.80;99.90;;;;;;5069686;28;20196;-69
2022/01/01 12:29:37;;;;;;;22.90;16.02;;;14.90;99.90;;;;;;5069145;28;20254;-68
2022/01/01 12:32:07;;;;;;;28.55;17.50;;;14.90;99.90;;;;;;5070023;28;20231;-68
2022/01/01 12:34:36;;;;;;;26.05;16.10;;;14.90;99.90;;;;;;5074996;28;20245;-68